Airfield :
LOGIN :

Register | Disclaimer

   EN    FR    IT 

 










Legend :    VFR   Marginal VFR   IFR   Intensive IFR   Very Intensive IFR
Visi :
Ceiling :
>= 8 km
>= 3000ft
5 to 8 km
1000 to 3000 ft
1500m to 5 km
500 to 1000 ft
800 to 1500m
200 to 500 ft
< 800m
< 200 ft
Symbols :   Thunderstorms  Fog  Heavy snow  Heavy precipitations  Wind > 20 kt
SIGMETs :     Misc.  Thunderstorms  Icing  Turbulence  Mountain Waves  Volcanic Ashes







- Airport Elevation : 286 ft
- IATA code : TRF


ENTO - Sandefjord , Torp

CURRENT METAR :
  • 241550Z 16007KT CAVOK 19/15 Q1025 NOSIG

EXPIRED METARs :
  • 241520Z 17009KT CAVOK 19/14 Q1025 NOSIG
  • 241450Z 16008KT CAVOK 20/14 Q1025 NOSIG
  • 241420Z 17007KT CAVOK 20/15 Q1025 NOSIG
  • 241350Z 16007KT CAVOK 20/14 Q1025 NOSIG
  • 241320Z 14007KT 110V170 CAVOK 20/14 Q1025 NOSIG

TAF TAF ENTO
Valid from the 24 at 12:00 until the 25 at 12:00 UTC


2412/2512 18010KT CAVOK
BECMG 2418/2420 BKN008
TEMPO 2420/2509 0800 FG VV002
BECMG 2509/2511 FEW008
No reported NOTAMs for that airfield.



MET'MAP, your aeronautical weather chart ! - Copyright ORBIFLY December 2007 - Disclaimer

ORBIFLY MET'MAP TEAM :

Programming & Development : Alexandra Zaïnal
Concept & Development : Baudouin d'Aumeries
Co-Development & Prog : Marc-Olivier Méhu
Technical & hardware support : Manuel Goepfert

Contact : metmap@orbifly.com




SOURCES & CREDITS :

   NOAA